createdAt,value
2023-04-15T00:03:45.461Z,98504.81
2023-04-15T00:08:48.217Z,98529.22
2023-04-15T00:13:50.016Z,98517.34
2023-04-15T00:18:51.851Z,98539.91
2023-04-15T00:23:53.842Z,98547.31
2023-04-15T00:28:55.498Z,98542.97
2023-04-15T00:33:57.166Z,98537.25
2023-04-15T00:38:59.079Z,98469.63
2023-04-15T00:44:02.491Z,98539.44
2023-04-15T00:49:06.397Z,98504.69
2023-04-15T00:54:08.019Z,98457.94
2023-04-15T00:59:10.084Z,98497.00
2023-04-15T01:04:12.352Z,98532.88
2023-04-15T01:09:13.978Z,98525.28
2023-04-15T01:14:16.171Z,98530.41
2023-04-15T01:19:18.146Z,98538.91
2023-04-15T01:24:20.118Z,98513.22
2023-04-15T01:29:22.556Z,98502.69
2023-04-15T01:34:24.183Z,98584.38
2023-04-15T01:39:26.075Z,98570.41
2023-04-15T01:44:27.772Z,98581.78
2023-04-15T01:49:29.472Z,98502.94
2023-04-15T01:54:31.556Z,98344.03
2023-04-15T01:59:33.154Z,98558.19
2023-04-15T02:04:34.943Z,98608.59
2023-04-15T02:09:36.533Z,98622.63
2023-04-15T02:14:38.081Z,98611.31
2023-04-15T02:19:40.596Z,98603.13
2023-04-15T02:24:42.194Z,98522.53
2023-04-15T02:29:46.874Z,98581.38
2023-04-15T02:34:48.749Z,98633.53
2023-04-15T02:39:50.659Z,98436.44
2023-04-15T02:44:52.234Z,98607.47
2023-04-15T02:49:53.851Z,98638.19
2023-04-15T02:55:00.512Z,98612.78
2023-04-15T03:00:02.308Z,98609.44
2023-04-15T03:05:04.594Z,98606.19
2023-04-15T03:10:07.399Z,98629.06
2023-04-15T03:15:09.972Z,98603.75
2023-04-15T03:20:11.813Z,98598.22
2023-04-15T03:25:13.583Z,98603.03
2023-04-15T03:30:15.290Z,98619.59
2023-04-15T03:35:17.230Z,98473.88
2023-04-15T03:40:19.061Z,98607.44
2023-04-15T03:45:20.726Z,98605.00
2023-04-15T03:50:22.415Z,98609.72
2023-04-15T03:55:24.012Z,98647.09
2023-04-15T04:00:25.652Z,98632.81
2023-04-15T04:05:27.277Z,98537.19
2023-04-15T04:10:28.825Z,98614.22
2023-04-15T04:15:30.552Z,98562.31
2023-04-15T04:20:32.273Z,98632.22
2023-04-15T04:25:33.832Z,98640.97
2023-04-15T04:30:36.232Z,98651.25
2023-04-15T04:35:37.967Z,98691.72
2023-04-15T04:40:39.749Z,98627.44
2023-04-15T04:45:41.981Z,98643.72
2023-04-15T04:50:45.168Z,98646.38
2023-04-15T04:55:46.841Z,98512.56
2023-04-15T05:00:48.507Z,98604.56
2023-04-15T05:05:50.352Z,98673.50
2023-04-15T05:10:52.088Z,98662.44
2023-04-15T05:15:53.805Z,98668.03
2023-04-15T05:20:55.545Z,98641.03
2023-04-15T05:25:57.272Z,98681.63
2023-04-15T05:30:59.049Z,98660.88
2023-04-15T05:36:00.804Z,98681.22
2023-04-15T05:41:02.531Z,98709.31
2023-04-15T05:46:04.458Z,98733.59
2023-04-15T05:51:06.553Z,98767.69
2023-04-15T05:56:08.352Z,98763.22
2023-04-15T06:01:09.998Z,98710.84
2023-04-15T06:06:11.656Z,98777.44
2023-04-15T06:11:13.419Z,98788.94
2023-04-15T06:16:15.138Z,98764.75
2023-04-15T06:21:16.786Z,98806.56
2023-04-15T06:26:18.428Z,98794.44
2023-04-15T06:31:20.169Z,98704.41
2023-04-15T06:36:22.122Z,98773.16
2023-04-15T06:41:23.997Z,98777.03
2023-04-15T06:46:26.092Z,98790.81
2023-04-15T06:51:27.817Z,98805.56
2023-04-15T06:56:29.686Z,98756.28
2023-04-15T07:01:31.509Z,98772.19
2023-04-15T07:06:33.887Z,98760.38
2023-04-15T07:11:36.524Z,98758.50
2023-04-15T07:16:38.165Z,98807.44
2023-04-15T07:21:41.812Z,98757.91
2023-04-15T07:26:44.651Z,98775.94
2023-04-15T07:31:46.397Z,98761.19
2023-04-15T07:36:52.074Z,98848.72
2023-04-15T07:41:53.727Z,98782.09
2023-04-15T07:46:56.165Z,98857.31
2023-04-15T07:51:57.895Z,98827.72
2023-04-15T07:56:59.560Z,98823.59
2023-04-15T08:02:01.399Z,98835.16
2023-04-15T08:07:04.103Z,98817.31
2023-04-15T08:12:06.497Z,98804.75
2023-04-15T08:17:08.205Z,98855.19
2023-04-15T08:22:17.657Z,98831.38
2023-04-15T08:27:20.235Z,98819.19
2023-04-15T08:32:22.756Z,98836.44
2023-04-15T08:37:24.492Z,98809.22
2023-04-15T08:42:35.315Z,98846.59
2023-04-15T08:47:38.858Z,98818.09
2023-04-15T08:52:40.608Z,98829.66
2023-04-15T08:57:42.248Z,98823.53
2023-04-15T09:02:44.250Z,98803.47
2023-04-15T09:07:46.235Z,98859.19
2023-04-15T09:12:47.819Z,98804.97
2023-04-15T09:17:49.561Z,98831.50
2023-04-15T09:22:52.309Z,98789.38
2023-04-15T09:27:59.232Z,98854.75
2023-04-15T09:33:04.919Z,98834.88
2023-04-15T09:38:08.017Z,98806.00
2023-04-15T09:43:13.178Z,98758.13
2023-04-15T09:48:29.127Z,98814.16
2023-04-15T09:53:34.490Z,98802.16
2023-04-15T09:58:38.711Z,98830.63
2023-04-15T10:03:42.537Z,98787.28
2023-04-15T10:08:44.374Z,98763.00
2023-04-15T10:13:47.243Z,98743.97
2023-04-15T10:18:55.728Z,98799.00
2023-04-15T10:23:58.674Z,98773.41
2023-04-15T10:29:01.392Z,98790.69
2023-04-15T10:34:06.505Z,98763.13
2023-04-15T10:39:34.369Z,98721.91
2023-04-15T10:44:38.392Z,98736.56
2023-04-15T10:49:45.720Z,98755.31
2023-04-15T10:54:47.690Z,98739.31
2023-04-15T10:59:58.812Z,98771.28
2023-04-15T11:07:05.788Z,98835.34
2023-04-15T11:12:09.627Z,98811.59
2023-04-15T11:17:11.762Z,98852.88
2023-04-15T11:22:13.546Z,98861.09
2023-04-15T11:27:24.311Z,98844.69
2023-04-15T11:32:26.055Z,98880.28
2023-04-15T11:37:32.378Z,98857.97
2023-04-15T11:42:48.766Z,98842.25
2023-04-15T11:47:51.135Z,98851.56
2023-04-15T11:53:06.229Z,98851.44
2023-04-15T11:58:17.071Z,98868.56
2023-04-15T12:03:27.789Z,98839.75
2023-04-15T12:08:49.154Z,98845.47
2023-04-15T12:13:51.408Z,98825.69
2023-04-15T12:18:58.965Z,98836.72
2023-04-15T12:24:04.510Z,98871.81
2023-04-15T12:29:08.374Z,98888.84
2023-04-15T12:34:10.025Z,98864.41
2023-04-15T12:39:11.772Z,98867.03
2023-04-15T12:44:13.497Z,98892.28
2023-04-15T12:49:16.073Z,98903.81
2023-04-15T12:54:18.796Z,98887.69
2023-04-15T12:59:21.184Z,98933.84
2023-04-15T13:04:23.274Z,98873.63
2023-04-15T13:09:25.240Z,98887.66
2023-04-15T13:14:27.310Z,98832.94
2023-04-15T13:19:28.950Z,98867.38
2023-04-15T13:24:30.795Z,98899.25
2023-04-15T13:29:32.816Z,98838.72
2023-04-15T13:34:34.531Z,98804.53
2023-04-15T13:39:36.445Z,98871.03
2023-04-15T13:44:38.586Z,98877.09
2023-04-15T13:49:40.667Z,98875.28
2023-04-15T13:54:42.438Z,98877.03
2023-04-15T13:59:44.363Z,98843.00
2023-04-15T14:04:46.006Z,98860.56
2023-04-15T14:09:48.346Z,98893.25
2023-04-15T14:14:50.086Z,98881.72
2023-04-15T14:19:51.789Z,98886.06
2023-04-15T14:24:54.775Z,98879.00
2023-04-15T14:29:57.862Z,98866.38
2023-04-15T14:34:59.596Z,98934.59
2023-04-15T14:40:01.234Z,98889.75
2023-04-15T14:45:02.964Z,98889.50
2023-04-15T14:50:05.120Z,98910.94
2023-04-15T14:55:10.426Z,98883.19
2023-04-15T15:00:15.841Z,98957.56
2023-04-15T15:05:18.153Z,98937.88
2023-04-15T15:10:38.181Z,98923.38
2023-04-15T15:15:42.185Z,98959.25
2023-04-15T15:20:44.073Z,98924.97
2023-04-15T15:25:46.586Z,98947.84
2023-04-15T15:30:48.402Z,98976.81
2023-04-15T15:35:51.424Z,99007.34
2023-04-15T15:40:53.084Z,98959.81
2023-04-15T15:45:55.644Z,98901.03
2023-04-15T15:50:57.554Z,99041.25
2023-04-15T15:55:59.208Z,98938.25
2023-04-15T16:01:01.928Z,99064.66
2023-04-15T16:06:04.608Z,99085.44
2023-04-15T16:11:06.485Z,99032.53
2023-04-15T16:16:08.274Z,99085.41
2023-04-15T16:21:10.166Z,98922.28
2023-04-15T16:26:11.854Z,99012.69
2023-04-15T16:31:13.601Z,99035.06
2023-04-15T16:36:15.617Z,99046.19
2023-04-15T16:41:18.629Z,99126.78
2023-04-15T16:46:20.414Z,99154.03
2023-04-15T16:51:22.072Z,99109.38
2023-04-15T16:56:23.979Z,99155.25
2023-04-15T17:01:25.784Z,99133.63
2023-04-15T17:06:27.933Z,99167.59
2023-04-15T17:11:29.704Z,99128.03
2023-04-15T17:16:31.455Z,99170.50
2023-04-15T17:21:34.789Z,99189.84
2023-04-15T17:26:36.516Z,99224.44
2023-04-15T17:31:38.291Z,99204.31
2023-04-15T17:36:40.137Z,99255.03
2023-04-15T17:41:41.883Z,99237.66
2023-04-15T17:46:43.658Z,99258.75
2023-04-15T17:51:46.717Z,99291.06
2023-04-15T17:56:49.388Z,99286.56
2023-04-15T18:01:51.205Z,99264.53
2023-04-15T18:06:52.971Z,99315.56
2023-04-15T18:11:54.593Z,99293.22
2023-04-15T18:16:56.615Z,99278.09
2023-04-15T18:22:00.242Z,99277.13
2023-04-15T18:27:02.452Z,99320.78
2023-04-15T18:32:04.275Z,99333.41
2023-04-15T18:37:06.461Z,99316.50
2023-04-15T18:42:08.190Z,99310.56
2023-04-15T18:47:09.829Z,99358.75
2023-04-15T18:52:11.775Z,99329.09
2023-04-15T18:57:13.436Z,99411.78
2023-04-15T19:02:18.446Z,99384.75
2023-04-15T19:07:20.216Z,99346.69
2023-04-15T19:12:21.888Z,99487.25
2023-04-15T19:17:23.797Z,99485.78
2023-04-15T19:22:25.539Z,99393.13
2023-04-15T19:27:27.247Z,99420.06
2023-04-15T19:32:28.996Z,99478.25
2023-04-15T19:37:30.710Z,99476.47
2023-04-15T19:42:32.510Z,99474.16
2023-04-15T19:47:34.834Z,99451.69
2023-04-15T19:52:36.679Z,99502.47
2023-04-15T19:57:38.430Z,99528.91
2023-04-15T20:02:40.390Z,99426.75
2023-04-15T20:07:42.759Z,99493.56
2023-04-15T20:12:49.807Z,99486.63
2023-04-15T20:17:54.428Z,99494.09
2023-04-15T20:22:56.155Z,99495.75
2023-04-15T20:28:00.390Z,99499.88
2023-04-15T20:33:02.908Z,99526.53
2023-04-15T20:38:04.623Z,99479.31
2023-04-15T20:43:06.244Z,99507.31
2023-04-15T20:48:08.012Z,99504.81
2023-04-15T20:53:09.689Z,99554.66
2023-04-15T20:58:11.988Z,99561.75
2023-04-15T21:03:13.928Z,99519.97
2023-04-15T21:08:15.752Z,99496.09
2023-04-15T21:13:17.771Z,99488.69
2023-04-15T21:18:20.825Z,99529.94
2023-04-15T21:23:22.487Z,99550.50
2023-04-15T21:28:24.178Z,99580.41
2023-04-15T21:33:26.292Z,99580.44
2023-04-15T21:38:27.944Z,99613.41
2023-04-15T21:43:30.092Z,99562.06
2023-04-15T21:48:31.782Z,99573.31
2023-04-15T21:53:33.631Z,99625.06
2023-04-15T21:58:35.391Z,99660.94
2023-04-15T22:03:37.163Z,99600.41
2023-04-15T22:08:48.817Z,99636.66
2023-04-15T22:13:54.816Z,99622.13
2023-04-15T22:18:56.545Z,99624.91
2023-04-15T22:24:38.044Z,99609.16
2023-04-15T22:29:19.990Z,99713.25
2023-04-15T22:34:22.056Z,99688.13
2023-04-15T22:39:23.723Z,99648.56
2023-04-15T22:44:25.343Z,99680.81
2023-04-15T22:49:27.426Z,99668.81
2023-04-15T22:54:29.090Z,99643.59
2023-04-15T22:59:30.974Z,99638.69
2023-04-15T23:04:32.701Z,99687.69
2023-04-15T23:09:34.504Z,99649.00
2023-04-15T23:14:36.142Z,99727.47
2023-04-15T23:19:37.763Z,99588.25
2023-04-15T23:24:39.353Z,99691.06
2023-04-15T23:29:40.996Z,99733.81
2023-04-15T23:34:42.621Z,99678.00
2023-04-15T23:39:44.679Z,99728.88
2023-04-15T23:44:46.354Z,99727.97
2023-04-15T23:49:47.923Z,99770.97
2023-04-15T23:54:49.542Z,99772.25
2023-04-15T23:59:51.273Z,99848.22
